createdAt,value
2019-02-27T00:00:31.126Z,3.94
2019-02-27T00:01:11.634Z,3.94
2019-02-27T00:01:49.984Z,3.94
2019-02-27T00:02:25.942Z,3.94
2019-02-27T00:02:58.836Z,3.94
2019-02-27T00:03:31.785Z,3.87
2019-02-27T00:04:04.828Z,3.87
2019-02-27T00:04:38.052Z,3.87
2019-02-27T00:05:11.045Z,3.87
2019-02-27T00:05:44.141Z,3.87
2019-02-27T00:06:18.164Z,3.87
2019-02-27T00:06:51.241Z,3.87
2019-02-27T00:07:24.134Z,3.81
2019-02-27T00:07:57.159Z,3.81
2019-02-27T00:08:31.547Z,3.81
2019-02-27T00:09:08.726Z,3.81
2019-02-27T00:09:43.671Z,3.81
2019-02-27T00:10:16.860Z,3.81
2019-02-27T00:10:49.869Z,3.81
2019-02-27T00:11:22.889Z,3.81
2019-02-27T00:11:55.819Z,3.81
2019-02-27T00:12:28.794Z,3.75
2019-02-27T00:13:02.979Z,3.81
2019-02-27T00:13:35.902Z,3.75
2019-02-27T00:14:08.925Z,3.75
2019-02-27T00:14:43.167Z,3.75
2019-02-27T00:15:16.222Z,3.75
2019-02-27T00:15:49.281Z,3.75
2019-02-27T00:16:22.475Z,3.75
2019-02-27T00:16:55.484Z,3.75
2019-02-27T00:17:28.559Z,3.75
2019-02-27T00:18:01.621Z,3.75
2019-02-27T00:18:34.792Z,3.75
2019-02-27T00:19:07.834Z,3.69
2019-02-27T00:19:40.949Z,3.69
2019-02-27T00:20:15.049Z,3.69
2019-02-27T00:20:48.176Z,3.69
2019-02-27T00:21:21.466Z,3.69
2019-02-27T00:21:54.393Z,3.69
2019-02-27T00:22:27.546Z,3.69
2019-02-27T00:23:00.387Z,3.69
2019-02-27T00:23:33.382Z,3.69
2019-02-27T00:24:06.384Z,3.62
2019-02-27T00:24:39.312Z,3.62
2019-02-27T00:25:12.348Z,3.62
2019-02-27T00:25:45.366Z,3.62
2019-02-27T00:26:18.377Z,3.62
2019-02-27T00:26:51.406Z,3.62
2019-02-27T00:27:24.344Z,3.62
2019-02-27T00:27:57.398Z,3.62
2019-02-27T00:28:30.438Z,3.62
2019-02-27T00:29:03.542Z,3.56
2019-02-27T00:29:36.531Z,3.56
2019-02-27T00:30:10.289Z,3.56
2019-02-27T00:30:43.607Z,3.56
2019-02-27T00:31:16.643Z,3.56
2019-02-27T00:31:49.460Z,3.56
2019-02-27T00:32:22.253Z,3.56
2019-02-27T00:32:55.341Z,3.56
2019-02-27T00:33:28.744Z,3.56
2019-02-27T00:34:01.860Z,3.56
2019-02-27T00:34:34.967Z,3.56
2019-02-27T00:35:08.105Z,3.56
2019-02-27T00:35:42.244Z,3.50
2019-02-27T00:36:15.162Z,3.50
2019-02-27T00:36:48.211Z,3.50
2019-02-27T00:37:21.256Z,3.50
2019-02-27T00:37:54.240Z,3.50
2019-02-27T00:38:27.277Z,3.50
2019-02-27T00:39:00.294Z,3.50
2019-02-27T00:39:33.410Z,3.50
2019-02-27T00:40:06.517Z,3.50
2019-02-27T00:40:39.564Z,3.50
2019-02-27T00:41:14.195Z,3.50
2019-02-27T00:41:47.130Z,3.50
2019-02-27T00:42:22.350Z,3.50
2019-02-27T00:42:55.064Z,3.50
2019-02-27T00:43:28.428Z,3.50
2019-02-27T00:44:02.306Z,3.44
2019-02-27T00:44:36.786Z,3.50
2019-02-27T00:45:10.181Z,3.50
2019-02-27T00:45:43.235Z,3.50
2019-02-27T00:46:16.274Z,3.50
2019-02-27T00:46:49.227Z,3.50
2019-02-27T00:47:22.170Z,3.50
2019-02-27T00:47:55.122Z,3.50
2019-02-27T00:48:28.182Z,3.50
2019-02-27T00:49:01.263Z,3.50
2019-02-27T00:49:34.307Z,3.44
2019-02-27T00:50:07.510Z,3.44
2019-02-27T00:50:40.670Z,3.44
2019-02-27T00:51:13.750Z,3.44
2019-02-27T00:51:46.937Z,3.44
2019-02-27T00:52:20.086Z,3.44
2019-02-27T00:52:53.040Z,3.44
2019-02-27T00:53:25.934Z,3.44
2019-02-27T00:53:59.044Z,3.44
2019-02-27T00:54:32.071Z,3.44
2019-02-27T00:55:05.393Z,3.44
2019-02-27T00:55:39.580Z,3.37
2019-02-27T00:56:12.943Z,3.44
2019-02-27T00:56:45.935Z,3.44
2019-02-27T00:57:20.881Z,3.37
2019-02-27T00:57:54.448Z,3.37
2019-02-27T00:58:27.921Z,3.37
2019-02-27T00:59:00.847Z,3.37
2019-02-27T00:59:34.935Z,3.37
2019-02-27T01:00:10.966Z,3.37
2019-02-27T01:00:44.292Z,3.37
2019-02-27T01:01:17.256Z,3.31
2019-02-27T01:01:50.288Z,3.31
2019-02-27T01:02:24.395Z,3.37
2019-02-27T01:02:57.384Z,3.31
2019-02-27T01:03:30.293Z,3.37
2019-02-27T01:04:03.446Z,3.31
2019-02-27T01:04:36.356Z,3.31
2019-02-27T01:05:09.587Z,3.37
2019-02-27T01:05:42.596Z,3.37
2019-02-27T01:06:15.635Z,3.37
2019-02-27T01:06:48.549Z,3.37
2019-02-27T01:07:21.579Z,3.31
2019-02-27T01:07:54.753Z,3.37
2019-02-27T01:08:28.201Z,3.31
2019-02-27T01:09:01.324Z,3.31
2019-02-27T01:09:37.257Z,3.31
2019-02-27T01:10:12.389Z,3.31
2019-02-27T01:10:46.023Z,3.31
2019-02-27T01:11:19.057Z,3.31
2019-02-27T01:11:52.516Z,3.31
2019-02-27T01:12:25.920Z,3.31
2019-02-27T01:12:59.069Z,3.31
2019-02-27T01:13:32.089Z,3.31
2019-02-27T01:14:05.244Z,3.31
2019-02-27T01:14:38.107Z,3.37
2019-02-27T01:15:11.617Z,3.37
2019-02-27T01:15:44.960Z,3.37
2019-02-27T01:16:18.037Z,3.37
2019-02-27T01:16:52.086Z,3.31
2019-02-27T01:17:25.131Z,3.31
2019-02-27T01:17:58.217Z,3.31
2019-02-27T01:18:31.438Z,3.31
2019-02-27T01:19:05.342Z,3.31
2019-02-27T01:19:39.324Z,3.31
2019-02-27T01:20:12.800Z,3.31
2019-02-27T01:20:46.660Z,3.31
2019-02-27T01:21:20.119Z,3.25
2019-02-27T01:21:54.792Z,3.25
2019-02-27T01:22:27.652Z,3.25
2019-02-27T01:23:00.657Z,3.25
2019-02-27T01:23:33.615Z,3.25
2019-02-27T01:24:06.509Z,3.25
2019-02-27T01:24:39.840Z,3.25
2019-02-27T01:25:13.227Z,3.19
2019-02-27T01:25:46.330Z,3.25
2019-02-27T01:26:19.240Z,3.19
2019-02-27T01:26:53.381Z,3.19
2019-02-27T01:27:26.345Z,3.19
2019-02-27T01:27:59.202Z,3.19
2019-02-27T01:28:32.102Z,3.19
2019-02-27T01:29:05.208Z,3.19
2019-02-27T01:29:38.249Z,3.19
2019-02-27T01:30:12.949Z,3.19
2019-02-27T01:30:45.976Z,3.19
2019-02-27T01:31:18.876Z,3.12
2019-02-27T01:31:51.936Z,3.12
2019-02-27T01:32:24.848Z,3.12
2019-02-27T01:32:57.879Z,3.12
2019-02-27T01:33:30.905Z,3.12
2019-02-27T01:34:04.058Z,3.12
2019-02-27T01:34:38.191Z,3.12
2019-02-27T01:35:12.326Z,3.12
2019-02-27T01:35:51.349Z,3.12
2019-02-27T01:36:24.507Z,3.12
2019-02-27T01:36:58.039Z,3.12
2019-02-27T01:37:32.323Z,3.19
2019-02-27T01:38:05.911Z,3.19
2019-02-27T01:38:39.133Z,3.19
2019-02-27T01:39:12.141Z,3.19
2019-02-27T01:39:45.272Z,3.19
2019-02-27T01:40:18.688Z,3.19
2019-02-27T01:40:52.176Z,3.19
2019-02-27T01:41:25.209Z,3.19
2019-02-27T01:41:58.589Z,3.19
2019-02-27T01:42:32.859Z,3.12
2019-02-27T01:43:06.475Z,3.19
2019-02-27T01:43:40.070Z,3.19
2019-02-27T01:44:14.282Z,3.19
2019-02-27T01:44:47.362Z,3.19
2019-02-27T01:45:21.062Z,3.19
2019-02-27T01:45:55.035Z,3.19
2019-02-27T01:46:28.444Z,3.19
2019-02-27T01:47:02.286Z,3.19
2019-02-27T01:47:36.522Z,3.19
2019-02-27T01:48:09.895Z,3.12
2019-02-27T01:48:45.460Z,3.19
2019-02-27T01:49:18.504Z,3.12
2019-02-27T01:49:51.289Z,3.12
2019-02-27T01:50:30.593Z,3.12
2019-02-27T01:51:03.635Z,3.12
2019-02-27T01:51:36.675Z,3.12
2019-02-27T01:52:10.458Z,3.12
2019-02-27T01:52:43.401Z,3.12
2019-02-27T01:53:18.088Z,3.12
2019-02-27T01:53:51.131Z,3.12
2019-02-27T01:54:24.152Z,3.12
2019-02-27T01:54:57.304Z,3.12
2019-02-27T01:55:30.448Z,3.06
2019-02-27T01:56:03.566Z,3.06
2019-02-27T01:56:36.488Z,3.06
2019-02-27T01:57:09.513Z,3.06
2019-02-27T01:57:42.810Z,3.06
2019-02-27T01:58:15.953Z,3.06
2019-02-27T01:58:49.074Z,3.06
2019-02-27T01:59:21.987Z,3.00
2019-02-27T01:59:55.035Z,3.00
2019-02-27T02:00:27.957Z,3.00
2019-02-27T02:01:03.223Z,3.00
2019-02-27T02:01:36.262Z,3.00
2019-02-27T02:02:09.293Z,3.00
2019-02-27T02:02:42.306Z,3.00
2019-02-27T02:03:15.213Z,3.00
2019-02-27T02:03:48.224Z,3.00
2019-02-27T02:04:21.266Z,2.94
2019-02-27T02:04:54.290Z,2.94
2019-02-27T02:05:27.587Z,2.94
2019-02-27T02:06:00.633Z,2.94
2019-02-27T02:06:33.675Z,2.94
2019-02-27T02:07:07.364Z,2.94
2019-02-27T02:07:40.826Z,2.94
2019-02-27T02:08:14.643Z,2.94
2019-02-27T02:08:49.568Z,2.94
2019-02-27T02:09:52.190Z,2.94
2019-02-27T02:10:28.285Z,2.94
2019-02-27T02:11:02.114Z,2.94
2019-02-27T02:11:35.672Z,2.94
2019-02-27T02:12:13.537Z,2.94
2019-02-27T02:13:01.865Z,2.94
2019-02-27T02:14:33.066Z,2.94
2019-02-27T02:15:50.131Z,2.94
2019-02-27T02:16:42.255Z,2.94
2019-02-27T02:18:02.802Z,2.94
2019-02-27T02:19:30.079Z,2.94
2019-02-27T02:20:47.572Z,2.94
2019-02-27T02:22:14.152Z,2.94
2019-02-27T02:23:53.330Z,2.94
2019-02-27T02:25:12.018Z,2.87
2019-02-27T02:26:50.008Z,2.87
2019-02-27T02:28:33.372Z,2.87
2019-02-27T02:30:03.951Z,2.81
2019-02-27T02:31:41.219Z,2.81
2019-02-27T02:32:53.332Z,2.81
2019-02-27T02:34:30.955Z,2.81
2019-02-27T02:35:35.295Z,2.75
2019-02-27T02:36:46.592Z,2.75
2019-02-27T02:37:57.092Z,2.75
2019-02-27T02:39:36.034Z,2.75
2019-02-27T02:41:20.810Z,2.75
2019-02-27T02:42:28.342Z,2.75
2019-02-27T02:44:00.953Z,2.75
2019-02-27T02:45:36.006Z,2.75
2019-02-27T02:46:58.476Z,2.69
2019-02-27T02:48:36.344Z,2.69
2019-02-27T02:49:34.235Z,2.69
2019-02-27T02:50:54.319Z,2.69
2019-02-27T02:51:50.003Z,2.69
2019-02-27T02:53:07.570Z,2.69
2019-02-27T02:54:37.565Z,2.69
2019-02-27T02:55:57.362Z,2.69
2019-02-27T02:57:24.396Z,2.69
2019-02-27T02:58:32.422Z,2.69
2019-02-27T02:59:47.666Z,2.69
2019-02-27T03:00:39.341Z,2.69
2019-02-27T03:01:31.221Z,2.62
2019-02-27T03:02:48.922Z,2.62
2019-02-27T03:04:53.887Z,2.62
2019-02-27T03:06:17.715Z,2.62
2019-02-27T03:07:58.390Z,2.62
2019-02-27T03:09:44.900Z,2.56
2019-02-27T03:10:33.412Z,2.56
2019-02-27T03:11:55.654Z,2.56
2019-02-27T03:13:26.475Z,2.56
2019-02-27T03:14:45.779Z,2.56
2019-02-27T03:16:04.632Z,2.56
2019-02-27T03:17:04.351Z,2.56
2019-02-27T03:18:29.684Z,2.50
2019-02-27T03:20:00.449Z,2.50
2019-02-27T03:21:27.502Z,2.56
2019-02-27T03:22:27.078Z,2.56
2019-02-27T03:24:05.699Z,2.50
2019-02-27T03:25:29.678Z,2.50
2019-02-27T03:26:56.698Z,2.50
2019-02-27T03:28:40.569Z,2.50
2019-02-27T03:29:53.929Z,2.44
2019-02-27T03:31:15.965Z,2.44
2019-02-27T03:32:41.335Z,2.44
2019-02-27T03:34:14.339Z,2.44
2019-02-27T03:35:35.737Z,2.37
2019-02-27T03:37:17.044Z,2.37
2019-02-27T03:38:48.966Z,2.37
2019-02-27T03:40:20.716Z,2.37
2019-02-27T03:41:22.560Z,2.37
2019-02-27T03:42:43.679Z,2.37
2019-02-27T03:44:26.056Z,2.37
2019-02-27T03:46:19.708Z,2.37
2019-02-27T03:47:42.364Z,2.37
2019-02-27T03:49:07.033Z,2.37
2019-02-27T03:50:38.348Z,2.31
2019-02-27T03:52:22.708Z,2.31
2019-02-27T03:54:02.435Z,2.31
2019-02-27T03:55:14.604Z,2.37
2019-02-27T03:56:43.751Z,2.31
2019-02-27T03:58:14.054Z,2.31
2019-02-27T03:59:43.966Z,2.31
2019-02-27T04:01:14.827Z,2.31
2019-02-27T04:02:42.239Z,2.31
2019-02-27T04:04:06.637Z,2.25
2019-02-27T04:05:33.964Z,2.25
2019-02-27T04:07:22.672Z,2.25
2019-02-27T04:08:51.757Z,2.25
2019-02-27T04:09:24.701Z,2.25
2019-02-27T04:09:57.917Z,2.25
2019-02-27T04:10:32.200Z,2.25
2019-02-27T04:11:06.757Z,2.25
2019-02-27T04:11:42.558Z,2.25
2019-02-27T04:12:16.591Z,2.25
2019-02-27T04:12:51.763Z,2.25
2019-02-27T04:13:27.775Z,2.25
2019-02-27T04:14:03.927Z,2.25
2019-02-27T04:14:40.430Z,2.25
2019-02-27T04:15:09.741Z,2.19
2019-02-27T04:15:42.892Z,2.25
2019-02-27T04:16:15.916Z,2.19
2019-02-27T04:16:48.934Z,2.19
2019-02-27T04:17:27.727Z,2.19
2019-02-27T04:17:59.486Z,2.19
2019-02-27T04:18:31.273Z,2.19
2019-02-27T04:19:05.110Z,2.19
2019-02-27T04:19:39.185Z,2.19
2019-02-27T04:20:16.358Z,2.19
2019-02-27T04:20:50.684Z,2.19
2019-02-27T04:21:25.384Z,2.19
2019-02-27T04:22:01.150Z,2.19
2019-02-27T04:22:37.506Z,2.19
2019-02-27T04:23:12.431Z,2.19
2019-02-27T04:23:48.045Z,2.19
2019-02-27T04:24:22.223Z,2.19
2019-02-27T04:24:56.602Z,2.12
2019-02-27T04:25:31.026Z,2.12
2019-02-27T04:26:05.752Z,2.12
2019-02-27T04:26:41.583Z,2.12
2019-02-27T04:27:13.055Z,2.12
2019-02-27T04:27:46.154Z,2.12
2019-02-27T04:28:20.541Z,2.12
2019-02-27T04:28:53.486Z,2.12
2019-02-27T04:29:26.508Z,2.12
2019-02-27T04:29:59.508Z,2.12
2019-02-27T04:30:32.686Z,2.12
2019-02-27T04:31:05.571Z,2.06
2019-02-27T04:31:38.673Z,2.06
2019-02-27T04:32:12.425Z,2.06
2019-02-27T04:32:48.976Z,2.06
2019-02-27T04:33:23.237Z,2.12
2019-02-27T04:33:59.758Z,2.12
2019-02-27T04:34:33.292Z,2.12
2019-02-27T04:35:06.939Z,2.12
2019-02-27T04:35:40.195Z,2.12
2019-02-27T04:36:13.522Z,2.12
2019-02-27T04:36:47.173Z,2.06
2019-02-27T04:37:21.133Z,2.06
2019-02-27T04:37:54.372Z,2.06
2019-02-27T04:38:28.207Z,2.06
2019-02-27T04:39:02.519Z,2.06
2019-02-27T04:39:38.845Z,2.06
2019-02-27T04:40:11.984Z,2.06
2019-02-27T04:40:45.080Z,2.06
2019-02-27T04:41:18.656Z,2.06
2019-02-27T04:41:52.572Z,2.06
2019-02-27T04:42:26.503Z,2.06
2019-02-27T04:42:59.971Z,2.06
2019-02-27T04:43:33.092Z,2.06
2019-02-27T04:44:06.254Z,2.06
2019-02-27T04:44:39.627Z,2.06
2019-02-27T04:45:13.121Z,2.06
2019-02-27T04:45:46.876Z,2.06
2019-02-27T04:46:21.704Z,2.06
2019-02-27T04:46:55.648Z,2.06
2019-02-27T04:47:29.698Z,2.06
2019-02-27T04:48:02.924Z,2.06
2019-02-27T04:48:35.968Z,2.00
2019-02-27T04:49:09.040Z,2.00
2019-02-27T04:49:41.974Z,2.00
2019-02-27T04:50:14.876Z,2.00
2019-02-27T04:50:47.862Z,2.00
2019-02-27T04:51:21.078Z,2.00
2019-02-27T04:51:54.158Z,2.00
2019-02-27T04:52:27.111Z,2.00
2019-02-27T04:53:00.110Z,1.94
2019-02-27T04:53:33.098Z,2.00
2019-02-27T04:54:07.462Z,2.00
2019-02-27T04:54:41.550Z,1.94
2019-02-27T04:55:15.666Z,1.94
2019-02-27T04:55:50.546Z,1.94
2019-02-27T04:56:25.185Z,1.94
2019-02-27T04:56:58.178Z,1.94
2019-02-27T04:57:33.774Z,1.94
2019-02-27T04:58:09.110Z,1.94
2019-02-27T04:58:43.169Z,1.94
2019-02-27T04:59:18.689Z,1.94
2019-02-27T04:59:52.335Z,1.94
2019-02-27T05:00:26.278Z,1.94
2019-02-27T05:00:59.887Z,1.94
2019-02-27T05:01:36.466Z,1.94
2019-02-27T05:02:07.989Z,1.94
2019-02-27T05:02:40.935Z,1.94
2019-02-27T05:03:13.891Z,1.94
2019-02-27T05:03:48.381Z,1.94
2019-02-27T05:04:21.251Z,1.94
2019-02-27T05:04:54.270Z,1.94
2019-02-27T05:05:27.328Z,1.94
2019-02-27T05:06:00.425Z,1.94
2019-02-27T05:06:33.350Z,2.00
2019-02-27T05:07:09.014Z,1.94
2019-02-27T05:07:41.868Z,1.94
2019-02-27T05:08:14.854Z,1.94
2019-02-27T05:08:47.972Z,1.94
2019-02-27T05:09:20.958Z,1.94
2019-02-27T05:09:53.975Z,1.94
2019-02-27T05:10:27.110Z,1.94
2019-02-27T05:11:00.073Z,1.94
2019-02-27T05:11:33.158Z,1.94
2019-02-27T05:12:06.210Z,1.94
2019-02-27T05:12:39.178Z,1.94
2019-02-27T05:13:12.006Z,1.94
2019-02-27T05:13:44.988Z,1.87
2019-02-27T05:14:17.933Z,1.94
2019-02-27T05:14:50.936Z,1.87
2019-02-27T05:15:25.432Z,1.87
2019-02-27T05:15:58.390Z,1.87
2019-02-27T05:16:33.138Z,1.87
2019-02-27T05:17:06.112Z,1.87
2019-02-27T05:17:39.042Z,1.87
2019-02-27T05:18:11.970Z,1.87
2019-02-27T05:18:45.036Z,1.87
2019-02-27T05:19:18.088Z,1.87
2019-02-27T05:19:52.097Z,1.87
2019-02-27T05:20:25.381Z,1.87
2019-02-27T05:20:58.544Z,1.87
2019-02-27T05:21:31.619Z,1.87
2019-02-27T05:22:04.751Z,1.87
2019-02-27T05:22:37.798Z,1.87
2019-02-27T05:23:10.783Z,1.87
2019-02-27T05:23:43.830Z,1.87
2019-02-27T05:24:16.837Z,1.81
2019-02-27T05:24:49.678Z,1.81
2019-02-27T05:25:22.778Z,1.81
2019-02-27T05:25:55.756Z,1.81
2019-02-27T05:26:28.793Z,1.81
2019-02-27T05:27:01.854Z,1.81
2019-02-27T05:27:34.813Z,1.81
2019-02-27T05:28:07.867Z,1.81
2019-02-27T05:28:41.110Z,1.81
2019-02-27T05:29:15.815Z,1.81
2019-02-27T05:29:49.883Z,1.81
2019-02-27T05:30:23.038Z,1.81
2019-02-27T05:30:56.048Z,1.81
2019-02-27T05:31:29.214Z,1.81
2019-02-27T05:32:02.268Z,1.81
2019-02-27T05:32:36.412Z,1.81
2019-02-27T05:33:09.593Z,1.81
2019-02-27T05:33:42.770Z,1.81
2019-02-27T05:34:15.610Z,1.75
2019-02-27T05:34:49.803Z,1.75
2019-02-27T05:35:24.392Z,1.75
2019-02-27T05:35:57.796Z,1.75
2019-02-27T05:36:31.774Z,1.75
2019-02-27T05:37:06.932Z,1.75
2019-02-27T05:37:39.834Z,1.75
2019-02-27T05:38:12.988Z,1.75
2019-02-27T05:38:46.539Z,1.75
2019-02-27T05:39:19.664Z,1.75
2019-02-27T05:39:52.692Z,1.75
2019-02-27T05:40:26.583Z,1.75
2019-02-27T05:41:00.111Z,1.75
2019-02-27T05:41:33.781Z,1.75
2019-02-27T05:42:07.012Z,1.75
2019-02-27T05:42:40.914Z,1.75
2019-02-27T05:43:14.073Z,1.81
2019-02-27T05:43:48.532Z,1.75
2019-02-27T05:44:22.319Z,1.81
2019-02-27T05:44:56.692Z,1.75
2019-02-27T05:45:31.178Z,1.81
2019-02-27T05:46:05.602Z,1.81
2019-02-27T05:46:39.101Z,1.75
2019-02-27T05:47:12.254Z,1.75
2019-02-27T05:47:46.002Z,1.75
2019-02-27T05:48:20.038Z,1.75
2019-02-27T05:48:53.996Z,1.75
2019-02-27T05:49:27.512Z,1.75
2019-02-27T05:50:01.532Z,1.75
2019-02-27T05:50:34.912Z,1.75
2019-02-27T05:51:08.343Z,1.75
2019-02-27T05:51:42.731Z,1.75
2019-02-27T05:52:15.775Z,1.75
2019-02-27T05:52:49.696Z,1.69
2019-02-27T05:53:22.943Z,1.69
2019-02-27T05:53:56.150Z,1.69
2019-02-27T05:54:32.284Z,1.69
2019-02-27T05:55:07.098Z,1.69
2019-02-27T05:55:40.203Z,1.69
2019-02-27T05:56:16.304Z,1.69
2019-02-27T05:56:49.750Z,1.69
2019-02-27T05:57:23.882Z,1.69
2019-02-27T05:57:57.192Z,1.69
2019-02-27T05:58:30.258Z,1.69
2019-02-27T05:59:03.399Z,1.69
2019-02-27T05:59:36.376Z,1.69
2019-02-27T06:00:14.314Z,1.69
2019-02-27T06:00:47.364Z,1.62
2019-02-27T06:01:20.562Z,1.62
2019-02-27T06:01:53.720Z,1.62
2019-02-27T06:02:26.599Z,1.62
2019-02-27T06:02:59.554Z,1.62
2019-02-27T06:03:32.390Z,1.62
2019-02-27T06:04:05.339Z,1.62
2019-02-27T06:04:38.393Z,1.62
2019-02-27T06:05:11.584Z,1.62
2019-02-27T06:05:49.637Z,1.62
2019-02-27T06:06:19.548Z,1.62
2019-02-27T06:06:52.742Z,1.62
2019-02-27T06:07:25.904Z,1.62
2019-02-27T06:08:02.055Z,1.62
2019-02-27T06:08:36.690Z,1.62
2019-02-27T06:09:10.926Z,1.62
2019-02-27T06:09:44.594Z,1.62
2019-02-27T06:10:20.215Z,1.62
2019-02-27T06:10:56.081Z,1.62
2019-02-27T06:11:29.529Z,1.56
2019-02-27T06:12:06.514Z,1.56
2019-02-27T06:12:38.172Z,1.56
2019-02-27T06:13:14.160Z,1.56
2019-02-27T06:13:47.610Z,1.56
2019-02-27T06:14:21.992Z,1.56
2019-02-27T06:14:55.585Z,1.56
2019-02-27T06:15:29.244Z,1.56
2019-02-27T06:16:03.844Z,1.56
2019-02-27T06:16:40.611Z,1.56
2019-02-27T06:17:13.015Z,1.56
2019-02-27T06:17:49.051Z,1.56
2019-02-27T06:18:23.468Z,1.56
2019-02-27T06:18:56.978Z,1.56
2019-02-27T06:19:30.585Z,1.56
2019-02-27T06:20:07.906Z,1.56
2019-02-27T06:20:41.998Z,1.50
2019-02-27T06:21:16.412Z,1.50
2019-02-27T06:21:56.107Z,1.50
2019-02-27T06:22:27.268Z,1.50
2019-02-27T06:23:04.163Z,1.50
2019-02-27T06:23:37.851Z,1.50
2019-02-27T06:24:12.442Z,1.50
2019-02-27T06:24:46.404Z,1.50
2019-02-27T06:25:23.478Z,1.50
2019-02-27T06:25:59.043Z,1.50
2019-02-27T06:26:32.225Z,1.50
2019-02-27T06:27:06.406Z,1.50
2019-02-27T06:27:39.965Z,1.50
2019-02-27T06:28:13.117Z,1.50
2019-02-27T06:28:46.030Z,1.50
2019-02-27T06:29:23.370Z,1.50
2019-02-27T06:29:56.838Z,1.50
2019-02-27T06:30:30.616Z,1.50
2019-02-27T06:31:04.206Z,1.50
2019-02-27T06:31:39.429Z,1.50
2019-02-27T06:32:12.454Z,1.44
2019-02-27T06:32:46.020Z,1.44
2019-02-27T06:33:18.888Z,1.50
2019-02-27T06:33:52.075Z,1.50
2019-02-27T06:34:25.431Z,1.44
2019-02-27T06:35:00.299Z,1.44
2019-02-27T06:35:34.289Z,1.44
2019-02-27T06:36:08.473Z,1.44
2019-02-27T06:36:42.843Z,1.44
2019-02-27T06:37:16.227Z,1.50
2019-02-27T06:37:50.694Z,1.44
2019-02-27T06:38:25.368Z,1.44
2019-02-27T06:39:00.318Z,1.44
2019-02-27T06:39:34.425Z,1.44
2019-02-27T06:40:10.113Z,1.44
2019-02-27T06:40:43.161Z,1.44
2019-02-27T06:41:16.368Z,1.44
2019-02-27T06:41:49.792Z,1.44
2019-02-27T06:42:23.353Z,1.44
2019-02-27T06:42:56.914Z,1.44
2019-02-27T06:43:29.817Z,1.44
2019-02-27T06:44:02.858Z,1.44
2019-02-27T06:44:39.329Z,1.44
2019-02-27T06:45:14.016Z,1.50
2019-02-27T06:45:46.936Z,1.44
2019-02-27T06:46:20.589Z,1.50
2019-02-27T06:46:54.673Z,1.50
2019-02-27T06:47:28.058Z,1.56
2019-02-27T06:48:01.096Z,1.56
2019-02-27T06:48:34.058Z,1.62
2019-02-27T06:49:07.005Z,1.62
2019-02-27T06:49:40.083Z,1.69
2019-02-27T06:50:14.002Z,1.69
2019-02-27T06:50:47.072Z,1.69
2019-02-27T06:51:19.954Z,1.75
2019-02-27T06:51:52.947Z,1.75
2019-02-27T06:52:26.010Z,1.75
2019-02-27T06:52:59.679Z,1.75
2019-02-27T06:53:32.590Z,1.75
2019-02-27T06:54:05.617Z,1.75
2019-02-27T06:54:38.394Z,1.75
2019-02-27T06:55:13.193Z,1.75
2019-02-27T06:55:46.628Z,1.75
2019-02-27T06:56:21.344Z,1.75
2019-02-27T06:56:54.349Z,1.81
2019-02-27T06:57:27.186Z,1.81
2019-02-27T06:58:00.082Z,1.81
2019-02-27T06:58:33.167Z,1.81
2019-02-27T06:59:06.290Z,1.81
2019-02-27T06:59:39.518Z,1.81
2019-02-27T07:00:15.975Z,1.81
2019-02-27T07:00:48.985Z,1.81
2019-02-27T07:01:22.064Z,1.81
2019-02-27T07:01:55.884Z,1.81
2019-02-27T07:02:28.794Z,1.87
2019-02-27T07:03:01.794Z,1.87
2019-02-27T07:03:34.893Z,1.87
2019-02-27T07:04:08.264Z,1.87
2019-02-27T07:04:41.296Z,1.87
2019-02-27T07:05:14.479Z,1.87
2019-02-27T07:05:48.161Z,1.94
2019-02-27T07:06:22.270Z,1.94
2019-02-27T07:06:56.028Z,1.94
2019-02-27T07:07:31.266Z,1.94
2019-02-27T07:08:05.090Z,2.00
2019-02-27T07:08:38.710Z,2.00
2019-02-27T07:09:12.234Z,2.00
2019-02-27T07:09:46.858Z,2.06
2019-02-27T07:10:20.644Z,2.06
2019-02-27T07:10:57.378Z,2.06
2019-02-27T07:11:28.784Z,2.12
2019-02-27T07:12:01.872Z,2.12
2019-02-27T07:12:35.105Z,2.12
2019-02-27T07:13:08.049Z,2.19
2019-02-27T07:13:41.090Z,2.19
2019-02-27T07:14:14.169Z,2.25
2019-02-27T07:14:47.254Z,2.25
2019-02-27T07:15:20.556Z,2.25
2019-02-27T07:15:55.685Z,2.31
2019-02-27T07:16:28.978Z,2.31
2019-02-27T07:17:02.012Z,2.31
2019-02-27T07:17:35.082Z,2.37
2019-02-27T07:18:08.057Z,2.37
2019-02-27T07:18:41.758Z,2.37
2019-02-27T07:19:16.385Z,2.44
2019-02-27T07:19:49.803Z,2.44
2019-02-27T07:20:24.542Z,2.50
2019-02-27T07:20:59.189Z,2.50
2019-02-27T07:21:32.792Z,2.56
2019-02-27T07:22:09.215Z,2.56
2019-02-27T07:22:45.611Z,2.56
2019-02-27T07:23:22.791Z,2.62
2019-02-27T07:23:57.533Z,2.62
2019-02-27T07:24:27.457Z,2.69
2019-02-27T07:25:00.406Z,2.69
2019-02-27T07:25:33.450Z,2.69
2019-02-27T07:26:06.577Z,2.75
2019-02-27T07:26:39.619Z,2.75
2019-02-27T07:27:13.658Z,2.75
2019-02-27T07:27:47.152Z,2.81
2019-02-27T07:28:20.430Z,2.81
2019-02-27T07:28:53.357Z,2.81
2019-02-27T07:29:27.559Z,2.87
2019-02-27T07:30:01.781Z,2.87
2019-02-27T07:30:35.034Z,2.87
2019-02-27T07:31:08.077Z,2.94
2019-02-27T07:31:41.049Z,2.94
2019-02-27T07:32:13.992Z,2.94
2019-02-27T07:32:47.088Z,2.94
2019-02-27T07:33:20.165Z,3.00
2019-02-27T07:33:53.214Z,3.00
2019-02-27T07:34:26.247Z,3.00
2019-02-27T07:34:59.224Z,3.06
2019-02-27T07:35:32.288Z,3.06
2019-02-27T07:36:05.418Z,3.06
2019-02-27T07:36:39.175Z,3.06
2019-02-27T07:37:12.951Z,3.12
2019-02-27T07:37:48.080Z,3.12
2019-02-27T07:38:21.626Z,3.19
2019-02-27T07:38:57.638Z,3.19
2019-02-27T07:39:32.617Z,3.25
2019-02-27T07:40:08.545Z,3.25
2019-02-27T07:40:42.940Z,3.31
2019-02-27T07:41:20.300Z,3.31
2019-02-27T07:41:51.304Z,3.31
2019-02-27T07:42:24.248Z,3.37
2019-02-27T07:42:57.147Z,3.37
2019-02-27T07:43:30.184Z,3.44
2019-02-27T07:44:03.285Z,3.44
2019-02-27T07:44:37.343Z,3.50
2019-02-27T07:45:13.688Z,3.50
2019-02-27T07:45:46.728Z,3.56
2019-02-27T07:46:22.192Z,3.56
2019-02-27T07:46:57.240Z,3.62
2019-02-27T07:47:30.238Z,3.62
2019-02-27T07:48:03.396Z,3.62
2019-02-27T07:48:36.397Z,3.69
2019-02-27T07:49:09.352Z,3.69
2019-02-27T07:49:42.164Z,3.75
2019-02-27T07:50:15.388Z,3.75
2019-02-27T07:50:49.737Z,3.75
2019-02-27T07:51:23.290Z,3.81
2019-02-27T07:51:57.943Z,3.81
2019-02-27T07:52:32.452Z,3.87
2019-02-27T07:53:06.180Z,3.87
2019-02-27T07:53:39.072Z,3.94
2019-02-27T07:54:11.989Z,3.94
2019-02-27T07:54:45.028Z,4.00
2019-02-27T07:55:22.957Z,4.00
2019-02-27T07:55:55.420Z,4.06
2019-02-27T07:56:28.323Z,4.06
2019-02-27T07:57:01.295Z,4.12
2019-02-27T07:57:34.189Z,4.19
2019-02-27T07:58:08.305Z,4.19
2019-02-27T07:58:41.230Z,4.19
2019-02-27T07:59:14.158Z,4.25
2019-02-27T07:59:47.936Z,4.25
2019-02-27T08:00:21.070Z,4.31
2019-02-27T08:00:54.108Z,4.37
2019-02-27T08:01:26.907Z,4.44
2019-02-27T08:02:02.397Z,4.44
2019-02-27T08:02:36.211Z,4.44
2019-02-27T08:03:11.001Z,4.50
2019-02-27T08:03:45.596Z,4.50
2019-02-27T08:04:20.886Z,4.56
2019-02-27T08:04:54.677Z,4.62
2019-02-27T08:05:29.114Z,4.62
2019-02-27T08:06:03.020Z,4.69
2019-02-27T08:06:37.810Z,4.75
2019-02-27T08:07:12.413Z,4.81
2019-02-27T08:07:49.094Z,4.87
2019-02-27T08:08:23.732Z,4.94
2019-02-27T08:08:57.834Z,5.00
2019-02-27T08:09:30.985Z,5.06
2019-02-27T08:10:06.063Z,5.06
2019-02-27T08:10:39.091Z,5.12
2019-02-27T08:11:13.577Z,5.12
2019-02-27T08:11:47.338Z,5.19
2019-02-27T08:12:21.076Z,5.25
2019-02-27T08:12:56.496Z,5.25
2019-02-27T08:13:29.687Z,5.31
2019-02-27T08:14:05.392Z,5.37
2019-02-27T08:14:38.296Z,5.44
2019-02-27T08:15:13.726Z,5.50
2019-02-27T08:15:46.894Z,5.62
2019-02-27T08:16:19.810Z,5.75
2019-02-27T08:16:57.103Z,5.94
2019-02-27T08:17:28.792Z,6.06
2019-02-27T08:18:01.860Z,6.31
2019-02-27T08:18:38.035Z,6.50
2019-02-27T08:19:13.001Z,6.75
2019-02-27T08:19:46.109Z,6.94
2019-02-27T08:20:21.049Z,7.19
2019-02-27T08:20:54.632Z,7.37
2019-02-27T08:21:29.806Z,7.56
2019-02-27T08:22:02.746Z,7.81
2019-02-27T08:22:35.811Z,8.00
2019-02-27T08:23:08.734Z,8.19
2019-02-27T08:23:41.704Z,8.38
2019-02-27T08:24:14.519Z,8.56
2019-02-27T08:24:47.446Z,8.75
2019-02-27T08:25:20.498Z,8.88
2019-02-27T08:25:54.532Z,9.06
2019-02-27T08:26:27.546Z,9.19
2019-02-27T08:27:00.572Z,9.31
2019-02-27T08:27:33.524Z,9.50
2019-02-27T08:28:06.558Z,9.56
2019-02-27T08:28:39.616Z,9.69
2019-02-27T08:29:13.600Z,9.81
2019-02-27T08:29:46.648Z,9.94
2019-02-27T08:30:20.473Z,10.06
2019-02-27T08:30:53.411Z,10.19
2019-02-27T08:31:28.263Z,10.25
2019-02-27T08:32:01.795Z,10.38
2019-02-27T08:32:35.304Z,10.38
2019-02-27T08:33:09.072Z,10.44
2019-02-27T08:33:41.998Z,10.50
2019-02-27T08:34:15.120Z,10.56
2019-02-27T08:34:48.067Z,10.56
2019-02-27T08:35:21.150Z,10.63
2019-02-27T08:35:58.133Z,10.63
2019-02-27T08:36:31.286Z,10.69
2019-02-27T08:37:04.304Z,10.69
2019-02-27T08:37:37.302Z,10.63
2019-02-27T08:38:10.310Z,10.63
2019-02-27T08:38:43.104Z,10.63